Time;durP1;ratioP1;P1;durP2;ratioP2;P2;SDS_P1;SDS_P2;PMS_P1;PMS_P2;Temp;Humidity;BMP_temperature;BMP_pressure;BME280_temperature;BME280_humidity;BME280_pressure;Samples;Min_cycle;Max_cycle;Signal;HPM_P1;HPM_P2
2023/11/10 00:02:22;;;;;;;6.55;4.35;;;6.70;99.90;;;;;;7484767;19;20107;-73
2023/11/10 00:04:54;;;;;;;;;;;6.70;99.90;;;;;;7502629;19;20024;-70
2023/11/10 00:07:26;;;;;;;5.63;4.18;;;6.60;99.90;;;;;;7513021;19;19925;-72
2023/11/10 00:09:59;;;;;;;6.57;4.47;;;6.50;99.90;;;;;;7494997;19;20037;-72
2023/11/10 00:12:32;;;;;;;8.98;4.05;;;6.40;99.90;;;;;;7506704;19;20017;-72
2023/11/10 00:15:08;;;;;;;5.45;4.20;;;6.30;99.90;;;;;;7504775;19;20021;-72
2023/11/10 00:17:40;;;;;;;5.22;3.95;;;6.30;99.90;;;;;;7482299;19;20032;-73
2023/11/10 00:20:14;;;;;;;5.55;3.70;;;6.30;99.90;;;;;;7500999;19;20458;-72
2023/11/10 00:22:48;;;;;;;7.25;4.57;;;6.40;99.90;;;;;;7510620;19;21444;-72
2023/11/10 00:25:20;;;;;;;6.45;4.22;;;6.40;99.90;;;;;;7515635;19;20048;-73
2023/11/10 00:27:53;;;;;;;7.07;4.43;;;6.40;99.90;;;;;;7492268;19;21925;-72
2023/11/10 00:30:25;;;;;;;6.43;4.20;;;6.40;99.90;;;;;;7505708;19;20019;-72
2023/11/10 00:32:58;;;;;;;6.78;4.20;;;6.40;99.90;;;;;;7495834;19;20022;-72
2023/11/10 00:35:31;;;;;;;6.78;4.10;;;6.30;99.90;;;;;;7494369;19;20014;-71
2023/11/10 00:38:03;;;;;;;7.25;4.38;;;6.30;99.90;;;;;;7521236;19;20018;-71
2023/11/10 00:40:37;;;;;;;7.80;4.60;;;6.30;99.90;;;;;;7504930;19;20036;-72
2023/11/10 00:43:09;;;;;;;9.50;5.15;;;6.10;99.90;;;;;;7498089;19;20026;-71
2023/11/10 00:45:42;;;;;;;6.97;4.60;;;6.00;99.90;;;;;;7497840;19;20039;-71
2023/11/10 00:48:15;;;;;;;11.47;4.50;;;5.90;99.90;;;;;;7521154;19;20012;-71
2023/11/10 00:50:48;;;;;;;9.60;4.25;;;6.00;99.90;;;;;;7509490;19;20900;-72
2023/11/10 00:53:22;;;;;;;6.15;4.65;;;6.00;99.90;;;;;;7508176;19;21434;-71
2023/11/10 00:55:54;;;;;;;5.25;4.57;;;6.00;99.90;;;;;;7493963;19;20014;-71
2023/11/10 00:58:27;;;;;;;11.88;4.95;;;5.80;99.90;;;;;;7512193;19;21021;-70
2023/11/10 01:01:00;;;;;;;6.28;4.72;;;5.80;99.90;;;;;;7492094;19;22059;-71
2023/11/10 01:03:33;;;;;;;9.90;5.07;;;5.80;99.90;;;;;;7485782;19;20020;-71
2023/11/10 01:06:05;;;;;;;6.07;4.90;;;5.70;99.90;;;;;;7500967;19;20265;-71
2023/11/10 01:08:38;;;;;;;5.97;4.55;;;5.70;99.90;;;;;;7504741;19;20018;-71
2023/11/10 01:11:11;;;;;;;6.45;4.85;;;5.70;99.90;;;;;;7501135;19;20021;-71
2023/11/10 01:13:43;;;;;;;8.57;4.93;;;5.60;99.90;;;;;;7493713;19;20101;-71
2023/11/10 01:16:16;;;;;;;6.68;5.32;;;5.60;99.90;;;;;;7484717;19;20034;-71
2023/11/10 01:18:49;;;;;;;8.35;5.45;;;5.50;99.90;;;;;;7489850;19;21105;-71
2023/11/10 01:21:21;;;;;;;7.03;4.80;;;5.50;99.90;;;;;;7495813;19;20015;-70
2023/11/10 01:23:54;;;;;;;10.93;5.63;;;5.50;99.90;;;;;;7502572;19;20379;-71
2023/11/10 01:26:28;;;;;;;8.40;6.28;;;5.60;99.90;;;;;;7490635;19;20019;-71
2023/11/10 01:29:00;;;;;;;9.43;4.80;;;5.60;99.90;;;;;;7493961;19;21143;-71
2023/11/10 01:31:34;;;;;;;7.13;4.85;;;5.50;99.90;;;;;;7513953;19;20440;-71
2023/11/10 01:34:06;;;;;;;10.05;5.57;;;5.50;99.90;;;;;;7487480;19;20314;-71
2023/11/10 01:36:38;;;;;;;7.88;5.28;;;5.50;99.90;;;;;;7500807;19;20022;-71
2023/11/10 01:39:12;;;;;;;13.68;5.90;;;5.50;99.90;;;;;;7490374;19;20010;-71
2023/11/10 01:41:44;;;;;;;6.32;4.93;;;5.40;99.90;;;;;;7482160;19;20014;-71
2023/11/10 01:44:17;;;;;;;6.95;5.47;;;5.20;99.90;;;;;;7475273;19;20010;-71
2023/11/10 01:46:52;;;;;;;10.50;5.45;;;5.20;99.90;;;;;;7494896;19;20111;-71
2023/11/10 01:49:28;;;;;;;8.38;5.22;;;5.20;99.90;;;;;;7510543;19;20376;-71
2023/11/10 01:52:02;;;;;;;6.63;4.88;;;5.10;99.90;;;;;;7496582;19;20097;-72
2023/11/10 01:54:36;;;;;;;8.20;5.18;;;5.00;99.90;;;;;;7497432;19;21998;-72
2023/11/10 01:57:09;;;;;;;9.10;5.18;;;4.90;99.90;;;;;;7497698;19;20082;-72
2023/11/10 01:59:46;;;;;;;14.10;5.78;;;4.90;99.90;;;;;;7496654;19;20014;-72
2023/11/10 02:02:18;;;;;;;8.70;5.30;;;4.90;99.90;;;;;;7491357;19;21474;-72
2023/11/10 02:04:51;;;;;;;9.32;5.60;;;4.80;99.90;;;;;;7501011;19;20018;-72
2023/11/10 02:07:24;;;;;;;9.30;5.97;;;4.80;99.90;;;;;;7504218;19;20041;-72
2023/11/10 02:09:56;;;;;;;10.93;6.05;;;4.80;99.90;;;;;;7497059;19;20027;-71
2023/11/10 02:12:29;;;;;;;8.32;5.53;;;4.80;99.90;;;;;;7495279;19;20014;-72
2023/11/10 02:15:02;;;;;;;10.75;5.88;;;4.80;99.90;;;;;;7485962;19;20029;-72
2023/11/10 02:17:36;;;;;;;9.88;6.18;;;4.80;99.90;;;;;;7492260;19;20114;-71
2023/11/10 02:20:09;;;;;;;9.63;5.97;;;4.80;99.90;;;;;;7499292;19;20019;-72
2023/11/10 02:22:49;;;;;;;8.55;5.78;;;4.80;99.90;;;;;;7494436;19;20056;-72
2023/11/10 02:25:22;;;;;;;9.75;6.47;;;4.70;99.90;;;;;;7492577;19;20131;-72
2023/11/10 02:27:54;;;;;;;11.18;5.75;;;4.70;99.90;;;;;;7492142;19;20015;-73
2023/11/10 02:30:27;;;;;;;9.10;6.20;;;4.80;99.90;;;;;;7501892;19;20011;-71
2023/11/10 02:32:59;;;;;;;7.72;5.80;;;4.80;99.90;;;;;;7490054;19;20022;-70
2023/11/10 02:35:32;;;;;;;13.35;6.38;;;4.70;99.90;;;;;;7471440;19;21059;-70
2023/11/10 02:38:04;;;;;;;10.00;5.93;;;4.70;99.90;;;;;;7503063;19;20056;-72
2023/11/10 02:40:36;;;;;;;11.52;6.05;;;4.80;99.90;;;;;;7500492;19;20026;-73
2023/11/10 02:43:09;;;;;;;8.85;6.10;;;4.80;99.90;;;;;;7508590;19;20023;-71
2023/11/10 02:45:41;;;;;;;9.95;5.80;;;4.80;99.90;;;;;;7471891;19;20021;-70
2023/11/10 02:48:13;;;;;;;12.07;6.70;;;4.80;99.90;;;;;;7504704;19;22095;-70
2023/11/10 02:50:47;;;;;;;9.20;6.32;;;4.80;99.90;;;;;;7495673;19;20947;-71
2023/11/10 02:53:19;;;;;;;;;;;4.90;99.90;;;;;;7488400;19;20014;-71
2023/11/10 02:55:51;;;;;;;9.15;6.47;;;4.90;99.90;;;;;;7498110;19;19970;-71
2023/11/10 02:58:24;;;;;;;10.73;6.32;;;5.00;99.90;;;;;;7500063;19;20010;-70
2023/11/10 03:00:57;;;;;;;12.93;6.25;;;5.00;99.90;;;;;;7489672;19;21593;-70
2023/11/10 03:03:29;;;;;;;12.55;6.40;;;5.00;99.90;;;;;;7476932;19;20014;-71
2023/11/10 03:06:02;;;;;;;9.52;6.03;;;5.00;99.90;;;;;;7503982;19;20034;-71
2023/11/10 03:08:34;;;;;;;9.18;6.43;;;5.10;99.90;;;;;;7496923;19;20017;-72
2023/11/10 03:11:07;;;;;;;11.43;6.85;;;5.20;99.90;;;;;;7513688;19;21494;-70
2023/11/10 03:13:46;;;;;;;8.37;5.97;;;5.10;99.90;;;;;;7493126;19;21465;-70
2023/11/10 03:16:18;;;;;;;14.75;6.90;;;5.00;99.90;;;;;;7483968;19;20511;-73
2023/11/10 03:18:55;;;;;;;9.88;6.70;;;5.10;99.90;;;;;;7510750;19;20535;-73
2023/11/10 03:21:28;;;;;;;9.88;7.03;;;5.00;99.90;;;;;;7492249;19;20021;-73
2023/11/10 03:24:01;;;;;;;10.45;6.80;;;5.00;99.90;;;;;;7471018;19;21457;-72
2023/11/10 03:26:35;;;;;;;11.23;7.00;;;5.00;99.90;;;;;;7501811;19;20015;-72
2023/11/10 03:29:07;;;;;;;9.93;6.38;;;5.00;99.90;;;;;;7498828;19;20295;-72
2023/11/10 03:31:39;;;;;;;9.07;6.70;;;5.00;99.90;;;;;;7498468;19;20026;-72
2023/11/10 03:34:12;;;;;;;11.77;6.70;;;5.00;99.90;;;;;;7505366;19;20014;-72
2023/11/10 03:36:45;;;;;;;10.75;6.80;;;5.00;99.90;;;;;;7497807;19;20022;-72
2023/11/10 03:39:18;;;;;;;10.13;6.57;;;4.90;99.90;;;;;;7487689;19;20729;-72
2023/11/10 03:41:50;;;;;;;13.30;7.25;;;4.90;99.90;;;;;;7501126;19;20015;-71
2023/11/10 03:44:22;;;;;;;11.13;6.57;;;4.90;99.90;;;;;;7493230;19;20039;-71
2023/11/10 03:46:55;;;;;;;12.52;6.93;;;4.90;99.90;;;;;;7525469;19;20018;-71
2023/11/10 03:49:29;;;;;;;9.25;6.25;;;4.80;99.90;;;;;;7515410;19;20014;-71
2023/11/10 03:52:02;;;;;;;11.73;6.93;;;4.80;99.90;;;;;;7524406;19;22092;-72
2023/11/10 03:54:34;;;;;;;12.82;7.57;;;4.80;99.90;;;;;;7513412;19;20011;-71
2023/11/10 03:57:06;;;;;;;10.80;6.65;;;4.80;99.90;;;;;;7500041;19;20026;-72
2023/11/10 03:59:39;;;;;;;10.18;6.97;;;4.70;99.90;;;;;;7505305;19;20492;-71
2023/11/10 04:02:12;;;;;;;13.95;7.72;;;4.70;99.90;;;;;;7505807;19;21524;-71
2023/11/10 04:04:44;;;;;;;10.52;6.90;;;4.70;99.90;;;;;;7506936;19;20603;-71
2023/11/10 04:07:16;;;;;;;11.02;6.95;;;4.80;99.90;;;;;;7526294;19;20033;-71
2023/11/10 04:09:49;;;;;;;10.73;7.15;;;4.80;99.90;;;;;;7496941;19;20082;-71
2023/11/10 04:12:22;;;;;;;13.02;6.35;;;4.80;99.90;;;;;;7489968;19;20787;-71
2023/11/10 04:14:55;;;;;;;8.32;6.25;;;4.90;99.90;;;;;;7503364;19;20120;-72
2023/11/10 04:17:27;;;;;;;8.20;5.47;;;4.90;99.90;;;;;;7485327;19;20025;-72
2023/11/10 04:19:59;;;;;;;13.13;6.75;;;4.90;99.90;;;;;;7474736;19;20018;-73
2023/11/10 04:22:32;;;;;;;11.73;6.80;;;4.80;99.90;;;;;;7493381;19;20014;-72
2023/11/10 04:25:04;;;;;;;10.82;7.00;;;4.80;99.90;;;;;;7491623;19;20082;-71
2023/11/10 04:27:37;;;;;;;8.85;5.90;;;4.80;99.90;;;;;;7492534;19;20160;-72
2023/11/10 04:30:10;;;;;;;11.67;6.63;;;4.60;99.90;;;;;;7487113;19;20026;-72
2023/11/10 04:32:42;;;;;;;10.95;5.95;;;4.60;99.90;;;;;;7500162;19;20287;-70
2023/11/10 04:35:21;;;;;;;11.02;6.35;;;4.70;99.90;;;;;;7500823;19;20022;-73
2023/11/10 04:38:00;;;;;;;9.88;6.22;;;4.70;99.90;;;;;;7491525;19;21412;-70
2023/11/10 04:40:33;;;;;;;8.65;5.55;;;4.70;99.90;;;;;;7504270;19;20025;-73
2023/11/10 04:43:05;;;;;;;8.63;5.85;;;4.70;99.90;;;;;;7484687;19;20025;-73
2023/11/10 04:45:38;;;;;;;9.55;5.47;;;4.70;99.90;;;;;;7491939;19;20047;-73
2023/11/10 04:48:10;;;;;;;9.63;6.70;;;4.70;99.90;;;;;;7493954;19;20744;-70
2023/11/10 04:50:43;;;;;;;9.20;6.40;;;4.70;99.90;;;;;;7507321;19;21540;-73
2023/11/10 04:53:15;;;;;;;10.65;6.35;;;4.70;99.90;;;;;;7474955;19;20014;-74
2023/11/10 04:55:48;;;;;;;8.40;6.18;;;4.70;99.90;;;;;;7474498;19;20022;-73
2023/11/10 04:58:21;;;;;;;10.45;6.15;;;4.70;99.90;;;;;;7460818;19;20018;-73
2023/11/10 05:00:54;;;;;;;10.30;6.03;;;4.70;99.90;;;;;;7471878;19;22400;-72
2023/11/10 05:03:31;;;;;;;11.10;6.23;;;4.70;99.90;;;;;;7491431;19;20294;-72
2023/11/10 05:06:04;;;;;;;9.77;5.68;;;4.70;99.90;;;;;;7473021;19;20373;-73
2023/11/10 05:08:36;;;;;;;8.13;5.23;;;4.80;99.90;;;;;;7455006;19;20013;-72
2023/11/10 05:11:11;;;;;;;10.33;5.97;;;4.70;99.90;;;;;;7454170;19;20026;-72
2023/11/10 05:13:44;;;;;;;9.23;6.15;;;4.70;99.90;;;;;;7440123;19;20023;-72
2023/11/10 05:16:16;;;;;;;9.18;5.97;;;4.70;99.90;;;;;;7475282;19;20034;-72
2023/11/10 05:18:49;;;;;;;7.63;5.28;;;4.70;99.90;;;;;;7470246;19;20394;-72
2023/11/10 05:21:26;;;;;;;9.35;6.07;;;4.60;99.90;;;;;;7464121;19;20010;-70
2023/11/10 05:24:00;;;;;;;11.23;6.28;;;4.50;99.90;;;;;;7456472;19;20327;-71
2023/11/10 05:26:32;;;;;;;10.45;6.95;;;4.50;99.90;;;;;;7462630;19;20014;-72
2023/11/10 05:29:05;;;;;;;11.25;6.55;;;4.40;99.90;;;;;;7456177;19;20018;-72
2023/11/10 05:31:39;;;;;;;11.85;6.38;;;4.30;99.90;;;;;;7459908;19;20017;-71
2023/11/10 05:34:11;;;;;;;10.20;6.50;;;4.30;99.90;;;;;;7457676;19;20018;-71
2023/11/10 05:36:44;;;;;;;8.65;6.13;;;4.50;99.90;;;;;;7463647;19;20018;-71
2023/11/10 05:39:16;;;;;;;9.23;6.70;;;4.40;99.90;;;;;;7462009;19;21482;-71
2023/11/10 05:41:49;;;;;;;10.82;5.97;;;4.40;99.90;;;;;;7442126;19;21645;-71
2023/11/10 05:44:23;;;;;;;8.18;5.80;;;4.40;99.90;;;;;;7416751;19;20014;-73
2023/11/10 05:46:55;;;;;;;9.25;5.70;;;4.40;99.90;;;;;;7427630;19;20017;-71
2023/11/10 05:49:28;;;;;;;10.27;5.50;;;4.50;99.90;;;;;;7468949;19;20964;-71
2023/11/10 05:52:01;;;;;;;10.10;5.55;;;4.40;99.90;;;;;;7466539;19;20013;-72
2023/11/10 05:54:34;;;;;;;7.85;5.20;;;4.50;99.90;;;;;;7440795;19;20015;-73
2023/11/10 05:57:06;;;;;;;8.32;5.50;;;4.50;99.90;;;;;;7459433;19;20381;-70
2023/11/10 05:59:39;;;;;;;8.82;5.57;;;4.50;99.90;;;;;;7445599;19;20030;-71
2023/11/10 06:02:12;;;;;;;7.97;4.65;;;4.50;99.90;;;;;;7437436;19;21859;-71
2023/11/10 06:04:44;;;;;;;10.82;6.45;;;4.50;99.90;;;;;;7480130;19;20799;-71
2023/11/10 06:07:17;;;;;;;8.55;5.63;;;4.50;99.90;;;;;;7442214;19;21258;-72
2023/11/10 06:09:50;;;;;;;13.13;6.93;;;4.50;99.90;;;;;;7497204;19;20917;-71
2023/11/10 06:12:24;;;;;;;11.27;6.75;;;4.50;99.90;;;;;;7478685;19;21436;-72
2023/11/10 06:14:57;;;;;;;;;;;4.40;99.90;;;;;;7488962;19;20026;-73
2023/11/10 06:17:29;;;;;;;11.95;6.05;;;4.40;99.90;;;;;;7458414;19;19961;-73
2023/11/10 06:20:02;;;;;;;8.50;5.80;;;4.40;99.90;;;;;;7440580;19;21215;-73
2023/11/10 06:22:37;;;;;;;7.88;5.70;;;4.40;99.90;;;;;;7487140;19;20105;-72
2023/11/10 06:25:12;;;;;;;11.43;5.88;;;4.30;99.90;;;;;;7454754;19;20022;-72
2023/11/10 06:27:44;;;;;;;16.15;5.93;;;4.30;99.90;;;;;;7416424;19;20011;-74
2023/11/10 06:30:17;;;;;;;11.98;6.40;;;4.40;99.90;;;;;;7424954;19;20007;-71
2023/11/10 06:32:49;;;;;;;10.97;6.20;;;4.30;99.90;;;;;;7487233;19;20014;-71
2023/11/10 06:35:22;;;;;;;10.68;6.00;;;4.30;99.90;;;;;;7521442;19;20021;-74
2023/11/10 06:37:54;;;;;;;11.27;6.03;;;4.30;99.90;;;;;;7523637;19;20061;-72
2023/11/10 06:40:27;;;;;;;12.35;6.15;;;4.30;99.90;;;;;;7523265;19;20143;-71
2023/11/10 06:43:03;;;;;;;16.52;6.03;;;4.40;99.90;;;;;;7523523;19;20018;-73
2023/11/10 06:45:35;;;;;;;11.15;6.53;;;4.50;99.90;;;;;;7508203;19;20042;-72
2023/11/10 06:48:07;;;;;;;11.65;5.93;;;4.50;99.90;;;;;;7526035;19;20025;-74
2023/11/10 06:50:41;;;;;;;8.98;6.05;;;4.50;99.90;;;;;;7529824;19;20010;-74
2023/11/10 06:53:14;;;;;;;10.73;6.35;;;4.70;99.90;;;;;;7518507;19;20488;-73
2023/11/10 06:55:47;;;;;;;11.38;6.97;;;4.70;99.90;;;;;;7498512;19;22296;-72
2023/11/10 06:58:19;;;;;;;10.90;6.57;;;4.60;99.90;;;;;;7534573;19;20018;-74
2023/11/10 07:00:51;;;;;;;9.50;6.10;;;4.80;99.90;;;;;;7543101;19;20048;-72
2023/11/10 07:03:24;;;;;;;9.30;5.45;;;4.80;99.90;;;;;;7524224;19;20142;-72
2023/11/10 07:05:57;;;;;;;9.13;5.80;;;4.80;99.90;;;;;;7540732;19;21637;-71
2023/11/10 07:08:30;;;;;;;9.20;5.45;;;4.80;99.90;;;;;;7524013;19;20025;-71
2023/11/10 07:11:03;;;;;;;9.50;5.75;;;4.90;99.90;;;;;;7520696;19;20018;-71
2023/11/10 07:13:36;;;;;;;17.17;6.27;;;5.00;99.90;;;;;;7541053;19;20074;-73
2023/11/10 07:16:09;;;;;;;8.73;5.28;;;5.20;99.90;;;;;;7525072;19;20018;-72
2023/11/10 07:18:41;;;;;;;9.57;5.13;;;5.20;99.90;;;;;;7533258;19;20018;-74
2023/11/10 07:21:13;;;;;;;11.07;5.25;;;5.40;99.90;;;;;;7536335;19;20751;-73
2023/11/10 07:23:45;;;;;;;9.10;5.38;;;5.50;99.90;;;;;;7527969;19;20014;-74
2023/11/10 07:26:19;;;;;;;9.85;5.55;;;5.50;99.90;;;;;;7533105;19;20023;-71
2023/11/10 07:28:51;;;;;;;9.35;5.05;;;5.50;99.90;;;;;;7528807;19;20823;-73
2023/11/10 07:31:23;;;;;;;12.98;4.82;;;5.60;99.90;;;;;;7526960;19;21080;-74
2023/11/10 07:33:56;;;;;;;9.25;5.00;;;5.70;99.90;;;;;;7525872;19;21535;-71
2023/11/10 07:36:29;;;;;;;7.95;4.38;;;5.80;99.90;;;;;;7516626;19;20090;-71
2023/11/10 07:39:02;;;;;;;9.05;4.00;;;5.90;99.90;;;;;;7528758;19;20018;-72
2023/11/10 07:41:34;;;;;;;8.15;4.20;;;6.00;99.90;;;;;;7539415;19;20280;-71
2023/11/10 07:44:09;;;;;;;5.25;3.40;;;6.20;99.90;;;;;;7515170;19;20014;-71
2023/11/10 07:46:42;;;;;;;7.53;3.50;;;6.40;99.90;;;;;;7526603;19;20687;-71
2023/11/10 07:49:14;;;;;;;5.55;3.60;;;6.60;99.90;;;;;;7531753;19;20014;-73
2023/11/10 07:51:46;;;;;;;6.53;4.78;;;6.70;99.90;;;;;;7537078;19;20135;-72
2023/11/10 07:54:18;;;;;;;5.18;3.42;;;6.90;99.90;;;;;;7525010;19;20022;-72
2023/11/10 07:56:51;;;;;;;5.00;3.30;;;6.90;99.90;;;;;;7506689;19;20017;-72
2023/11/10 07:59:23;;;;;;;5.97;2.83;;;7.00;99.90;;;;;;7496703;19;20018;-72
2023/11/10 08:01:55;;;;;;;6.63;4.28;;;7.20;99.90;;;;;;7505152;19;20033;-73
2023/11/10 08:04:29;;;;;;;6.50;3.42;;;7.20;99.90;;;;;;7508172;19;20795;-74
2023/11/10 08:07:01;;;;;;;4.20;3.08;;;7.20;99.90;;;;;;7504577;19;20021;-74
2023/11/10 08:09:36;;;;;;;4.55;3.45;;;7.10;99.90;;;;;;7474835;19;20383;-73
2023/11/10 08:12:08;;;;;;;4.95;2.70;;;7.20;99.90;;;;;;7527656;19;20503;-73
2023/11/10 08:14:41;;;;;;;6.55;3.25;;;7.20;99.90;;;;;;7550629;19;20018;-74
2023/11/10 08:17:14;;;;;;;6.85;3.00;;;7.20;99.90;;;;;;7543044;19;20014;-73
2023/11/10 08:19:47;;;;;;;5.50;3.47;;;7.30;99.90;;;;;;7549461;19;20018;-74
2023/11/10 08:22:19;;;;;;;5.65;3.65;;;7.30;99.90;;;;;;7550766;19;20026;-73
2023/11/10 08:24:55;;;;;;;7.13;3.90;;;7.40;99.90;;;;;;7549393;19;21294;-73
2023/11/10 08:27:31;;;;;;;5.72;3.97;;;7.50;99.90;;;;;;7551706;19;20022;-73
2023/11/10 08:30:08;;;;;;;7.65;3.80;;;7.50;99.90;;;;;;7552070;19;20021;-73
2023/11/10 08:32:41;;;;;;;5.03;3.08;;;7.50;99.90;;;;;;7552910;19;20018;-73
2023/11/10 08:35:15;;;;;;;5.47;3.00;;;7.60;99.90;;;;;;7550278;19;20018;-73
2023/11/10 08:37:47;;;;;;;7.68;3.65;;;7.80;99.90;;;;;;7527367;19;20014;-73
2023/11/10 08:40:20;;;;;;;5.72;3.08;;;7.90;99.90;;;;;;7510276;19;20026;-73
2023/11/10 08:42:52;;;;;;;2.08;1.83;;;7.90;99.90;;;;;;7554088;19;20019;-73
2023/11/10 08:45:24;;;;;;;7.47;3.97;;;8.00;99.90;;;;;;7548100;19;20472;-73
2023/11/10 08:47:57;;;;;;;3.13;2.80;;;8.00;99.90;;;;;;7553493;19;20362;-73
2023/11/10 08:50:31;;;;;;;5.45;3.28;;;8.00;99.90;;;;;;7535458;19;20022;-73
2023/11/10 08:53:03;;;;;;;3.67;2.70;;;7.90;99.90;;;;;;7514460;19;20018;-73
2023/11/10 08:55:40;;;;;;;4.37;3.10;;;7.90;99.90;;;;;;7521328;19;20610;-73
2023/11/10 08:58:13;;;;;;;4.95;2.83;;;8.00;99.90;;;;;;7487622;19;20101;-73
2023/11/10 09:00:46;;;;;;;;;;;8.10;99.90;;;;;;7517771;19;20605;-72
2023/11/10 09:03:19;;;;;;;4.13;2.65;;;8.10;99.90;;;;;;7488452;19;19976;-75
2023/11/10 09:05:51;;;;;;;3.05;2.70;;;8.10;99.90;;;;;;7473315;19;21089;-73
2023/11/10 09:08:24;;;;;;;1.40;1.30;;;8.30;99.90;;;;;;7521283;19;20015;-72
2023/11/10 09:10:57;;;;;;;2.83;1.83;;;8.40;99.90;;;;;;7546676;19;20026;-74
2023/11/10 09:13:29;;;;;;;5.50;1.15;;;8.40;99.90;;;;;;7527471;19;20442;-72
2023/11/10 09:16:03;;;;;;;1.42;1.20;;;8.50;99.90;;;;;;7513613;19;20739;-74
2023/11/10 09:18:36;;;;;;;4.47;1.42;;;8.60;99.90;;;;;;7544550;19;20492;-72
2023/11/10 09:21:09;;;;;;;3.35;1.52;;;8.60;99.90;;;;;;7536280;19;20107;-72
2023/11/10 09:23:42;;;;;;;1.52;1.15;;;8.70;99.90;;;;;;7545399;19;20010;-74
2023/11/10 09:26:14;;;;;;;1.40;1.00;;;8.80;99.90;;;;;;7542881;19;21329;-71
2023/11/10 09:28:48;;;;;;;1.02;0.70;;;8.80;99.90;;;;;;7543989;19;20034;-72
2023/11/10 09:31:20;;;;;;;2.05;1.02;;;8.80;99.90;;;;;;7538846;19;20010;-75
2023/11/10 09:33:53;;;;;;;1.60;0.60;;;8.70;99.90;;;;;;7541015;19;20048;-75
2023/11/10 09:36:26;;;;;;;2.03;0.65;;;8.60;99.90;;;;;;7544318;19;20021;-74
2023/11/10 09:38:59;;;;;;;2.08;0.60;;;8.60;99.90;;;;;;7548830;19;20018;-74
2023/11/10 09:41:40;;;;;;;0.70;0.60;;;8.70;99.90;;;;;;7542553;19;20570;-74
2023/11/10 09:44:14;;;;;;;0.85;0.70;;;8.70;99.90;;;;;;7486819;19;21456;-74
2023/11/10 09:46:49;;;;;;;1.15;0.73;;;8.70;99.90;;;;;;7564480;19;20014;-72
2023/11/10 09:49:22;;;;;;;0.52;0.40;;;8.80;99.90;;;;;;7565949;19;20010;-72
2023/11/10 09:51:56;;;;;;;0.80;0.52;;;8.80;99.90;;;;;;7565148;19;20094;-72
2023/11/10 09:54:31;;;;;;;1.83;0.80;;;8.80;99.90;;;;;;7550220;19;20014;-74
2023/11/10 09:57:05;;;;;;;2.58;0.43;;;8.80;99.90;;;;;;7546425;19;20006;-72
2023/11/10 09:59:38;;;;;;;0.60;0.45;;;8.70;99.90;;;;;;7559472;19;20064;-71
2023/11/10 10:02:14;;;;;;;0.40;0.40;;;8.80;99.90;;;;;;7558900;19;20097;-72
2023/11/10 10:04:46;;;;;;;0.65;0.35;;;8.90;99.90;;;;;;7548225;19;20018;-73
2023/11/10 10:07:19;;;;;;;0.60;0.50;;;8.90;99.90;;;;;;7557238;19;20018;-73
2023/11/10 10:09:52;;;;;;;1.33;0.80;;;8.80;99.90;;;;;;7553866;19;20026;-72
2023/11/10 10:12:28;;;;;;;0.73;0.57;;;8.70;99.90;;;;;;7549561;19;20057;-73
2023/11/10 10:15:01;;;;;;;0.35;0.30;;;8.70;99.90;;;;;;7535832;19;21180;-73
2023/11/10 10:17:36;;;;;;;1.38;0.90;;;8.60;99.90;;;;;;7554616;19;20050;-73
2023/11/10 10:20:14;;;;;;;0.77;0.47;;;8.50;99.90;;;;;;7540808;19;20010;-73
2023/11/10 10:22:48;;;;;;;0.40;0.40;;;8.50;99.90;;;;;;7536468;19;20017;-74
2023/11/10 10:25:21;;;;;;;1.80;0.50;;;8.70;99.90;;;;;;7520602;19;20360;-73
2023/11/10 10:27:56;;;;;;;0.93;0.60;;;8.70;99.90;;;;;;7551516;19;20367;-71
2023/11/10 10:30:28;;;;;;;0.52;0.40;;;8.80;99.90;;;;;;7557080;19;20011;-74
2023/11/10 10:33:00;;;;;;;0.50;0.30;;;8.80;99.90;;;;;;7558722;19;20026;-73
2023/11/10 10:35:33;;;;;;;0.40;0.40;;;8.90;99.90;;;;;;7544487;19;20044;-73
2023/11/10 10:38:08;;;;;;;0.30;0.30;;;8.90;99.90;;;;;;7551281;19;20014;-72
2023/11/10 10:40:42;;;;;;;0.52;0.40;;;8.90;99.90;;;;;;7553619;19;20606;-73
2023/11/10 10:43:18;;;;;;;0.40;0.40;;;9.00;99.90;;;;;;7552852;19;22739;-73
2023/11/10 10:45:52;;;;;;;0.60;0.50;;;9.00;99.90;;;;;;7533450;19;20782;-73
2023/11/10 10:48:27;;;;;;;0.70;0.43;;;9.10;99.90;;;;;;7541853;19;20015;-73
2023/11/10 10:51:01;;;;;;;0.63;0.50;;;9.20;99.90;;;;;;7027838;19;10000664;-73
2023/11/10 10:53:44;;;;;;;0.99;0.59;;;9.30;99.90;;;;;;5432751;19;10000684;-74
2023/11/10 10:56:19;;;;;;;0.68;0.47;;;9.30;99.90;;;;;;7557498;19;20280;-73
2023/11/10 10:59:10;;;;;;;0.40;0.40;;;9.20;99.90;;;;;;7536479;19;20363;-73
2023/11/10 11:01:46;;;;;;;1.27;0.65;;;9.30;99.90;;;;;;7540353;19;20290;-74
2023/11/10 11:04:24;;;;;;;1.33;0.73;;;9.20;99.90;;;;;;7561409;19;22021;-73
2023/11/10 11:07:22;;;;;;;0.88;0.50;;;9.30;99.90;;;;;;7516537;19;20333;-75
2023/11/10 11:10:16;;;;;;;1.10;0.75;;;9.20;99.90;;;;;;7523880;19;20020;-73
2023/11/10 11:13:07;;;;;;;0.45;0.40;;;9.30;99.90;;;;;;7500245;19;20010;-73
2023/11/10 11:15:46;;;;;;;1.17;0.50;;;9.30;99.90;;;;;;7515362;19;20014;-73
2023/11/10 11:19:01;;;;;;;0.70;0.45;;;9.30;99.90;;;;;;7519974;19;20014;-73
2023/11/10 11:21:34;;;;;;;0.50;0.50;;;9.30;99.90;;;;;;7508883;19;20011;-74
2023/11/10 11:24:07;;;;;;;1.48;0.60;;;9.50;99.90;;;;;;7521203;19;21078;-73
2023/11/10 11:26:41;;;;;;;0.85;0.52;;;9.50;99.90;;;;;;7518831;19;20011;-72
2023/11/10 11:29:20;;;;;;;0.88;0.70;;;9.60;99.90;;;;;;7543245;19;20023;-72
2023/11/10 11:31:53;;;;;;;2.22;0.68;;;9.60;99.90;;;;;;7533015;19;20111;-73
2023/11/10 11:34:28;;;;;;;0.63;0.50;;;9.70;99.90;;;;;;7522103;19;20601;-73
2023/11/10 11:37:07;;;;;;;0.30;0.30;;;9.70;99.90;;;;;;7529690;19;20022;-73
2023/11/10 11:39:41;;;;;;;0.50;0.30;;;9.80;99.90;;;;;;7561469;19;20125;-73
2023/11/10 11:42:15;;;;;;;2.70;1.80;;;9.70;99.90;;;;;;7562249;19;20044;-74
2023/11/10 11:44:57;;;;;;;1.20;0.73;;;9.60;99.90;;;;;;7553914;19;20485;-72
2023/11/10 11:47:33;;;;;;;0.63;0.30;;;9.60;99.90;;;;;;7561034;19;20023;-74
2023/11/10 11:50:07;;;;;;;1.10;0.43;;;9.60;99.90;;;;;;7567236;19;20025;-74
2023/11/10 11:52:40;;;;;;;6.43;2.25;;;9.80;99.90;;;;;;7541077;19;20046;-71
2023/11/10 11:55:12;;;;;;;3.80;0.88;;;9.70;99.90;;;;;;7563226;19;20018;-72
2023/11/10 11:57:46;;;;;;;0.50;0.32;;;9.60;99.90;;;;;;7558207;19;20018;-72
2023/11/10 12:00:20;;;;;;;2.35;0.40;;;9.60;99.90;;;;;;7569813;19;20018;-72
2023/11/10 12:02:55;;;;;;;0.43;0.32;;;9.70;99.90;;;;;;7555740;19;20021;-72
2023/11/10 12:05:30;;;;;;;0.30;0.20;;;9.80;99.90;;;;;;7563913;19;20040;-73
2023/11/10 12:08:02;;;;;;;3.65;0.82;;;10.10;99.90;;;;;;7565132;19;20018;-72
2023/11/10 12:10:34;;;;;;;5.35;2.08;;;10.20;99.90;;;;;;7558946;19;20705;-73
2023/11/10 12:13:07;;;;;;;4.55;1.63;;;10.30;99.90;;;;;;7561790;19;20026;-72
2023/11/10 12:15:42;;;;;;;3.20;1.55;;;10.20;99.90;;;;;;7559203;19;20019;-74
2023/11/10 12:18:17;;;;;;;0.82;0.63;;;10.20;99.90;;;;;;7571836;19;20014;-73
2023/11/10 12:20:50;;;;;;;6.72;3.17;;;10.00;99.90;;;;;;7560359;19;20011;-74
2023/11/10 12:23:23;;;;;;;5.03;1.75;;;9.80;99.90;;;;;;7570225;19;20106;-73
2023/11/10 12:25:55;;;;;;;10.65;2.78;;;9.70;99.90;;;;;;7549973;19;20018;-73
2023/11/10 12:28:27;;;;;;;6.28;2.75;;;9.60;99.90;;;;;;7565677;19;20033;-74
2023/11/10 12:31:01;;;;;;;6.05;3.05;;;9.50;99.90;;;;;;7549805;19;20113;-73
2023/11/10 12:33:35;;;;;;;2.42;1.48;;;9.50;99.90;;;;;;7560531;19;20441;-73
2023/11/10 12:36:08;;;;;;;12.15;0.80;;;9.40;99.90;;;;;;7562025;19;20037;-74
2023/11/10 12:38:41;;;;;;;0.68;0.50;;;9.40;99.90;;;;;;7542815;19;20022;-73
2023/11/10 12:41:13;;;;;;;0.47;0.45;;;9.40;99.90;;;;;;7560974;19;21272;-73
2023/11/10 12:43:46;;;;;;;1.48;0.60;;;9.50;99.90;;;;;;7497297;19;20018;-73
2023/11/10 12:46:20;;;;;;;0.73;0.52;;;9.40;99.90;;;;;;7560087;19;21362;-72
2023/11/10 12:48:54;;;;;;;0.98;0.77;;;9.40;99.90;;;;;;7537444;19;20633;-72
2023/11/10 12:51:29;;;;;;;0.65;0.52;;;9.40;99.90;;;;;;7563266;19;20052;-72
2023/11/10 12:54:06;;;;;;;1.15;0.93;;;9.50;99.90;;;;;;7566085;19;20021;-73
2023/11/10 12:56:39;;;;;;;1.55;0.88;;;9.50;99.90;;;;;;7558740;19;21293;-72
2023/11/10 12:59:23;;;;;;;1.85;0.82;;;9.70;99.90;;;;;;7563624;19;20022;-72
2023/11/10 13:01:59;;;;;;;0.70;0.50;;;9.60;99.90;;;;;;7557039;19;20010;-72
2023/11/10 13:04:32;;;;;;;0.63;0.63;;;9.70;99.90;;;;;;7558953;19;20071;-72
2023/11/10 13:07:06;;;;;;;1.80;0.73;;;9.70;99.90;;;;;;7555285;19;21881;-72
2023/11/10 13:09:39;;;;;;;0.88;0.68;;;9.90;99.90;;;;;;7561827;19;20085;-72
2023/11/10 13:12:11;;;;;;;1.58;0.90;;;10.40;99.90;;;;;;7552829;19;20011;-72
2023/11/10 13:14:43;;;;;;;1.45;0.60;;;10.40;99.90;;;;;;7527201;19;20684;-71
2023/11/10 13:17:18;;;;;;;2.03;0.70;;;10.30;99.90;;;;;;7557420;19;20091;-72
2023/11/10 13:19:50;;;;;;;0.63;0.63;;;10.20;99.90;;;;;;7560244;19;20049;-72
2023/11/10 13:22:23;;;;;;;2.42;0.50;;;10.20;99.90;;;;;;7552821;19;20481;-73
2023/11/10 13:24:55;;;;;;;0.60;0.50;;;10.20;99.90;;;;;;7532819;19;20006;-72
2023/11/10 13:27:28;;;;;;;0.55;0.40;;;10.30;99.90;;;;;;7543779;19;20022;-72
2023/11/10 13:30:01;;;;;;;0.30;0.30;;;10.20;99.90;;;;;;7541205;19;21486;-72